createdAt,value
2018-04-23T00:01:13.171Z,99.90
2018-04-23T00:03:39.714Z,99.90
2018-04-23T00:06:06.227Z,99.90
2018-04-23T00:08:32.682Z,99.90
2018-04-23T00:11:00.529Z,99.90
2018-04-23T00:13:26.965Z,99.90
2018-04-23T00:15:53.397Z,99.90
2018-04-23T00:18:20.242Z,99.90
2018-04-23T00:20:46.751Z,99.90
2018-04-23T00:23:13.933Z,99.90
2018-04-23T00:25:40.407Z,99.90
2018-04-23T00:28:06.894Z,99.90
2018-04-23T00:30:33.329Z,99.90
2018-04-23T00:32:59.839Z,99.90
2018-04-23T00:35:27.090Z,99.90
2018-04-23T00:37:54.313Z,99.90
2018-04-23T00:40:20.739Z,99.90
2018-04-23T00:42:47.209Z,99.90
2018-04-23T00:45:13.660Z,99.90
2018-04-23T00:47:40.207Z,99.90
2018-04-23T00:50:06.645Z,99.90
2018-04-23T00:52:33.082Z,99.90
2018-04-23T00:54:59.537Z,99.90
2018-04-23T00:57:25.993Z,99.90
2018-04-23T00:59:52.507Z,99.90
2018-04-23T01:02:18.929Z,99.90
2018-04-23T01:04:45.428Z,99.90
2018-04-23T01:07:11.873Z,99.90
2018-04-23T01:09:45.428Z,99.90
2018-04-23T01:12:11.842Z,99.90
2018-04-23T01:14:38.350Z,99.90
2018-04-23T01:17:04.779Z,99.90
2018-04-23T01:19:31.256Z,99.90
2018-04-23T01:21:57.705Z,99.90
2018-04-23T01:24:24.861Z,99.90
2018-04-23T01:26:52.137Z,99.90
2018-04-23T01:29:18.577Z,99.90
2018-04-23T01:31:45.134Z,99.90
2018-04-23T01:34:11.561Z,99.90
2018-04-23T01:36:38.033Z,99.90
2018-04-23T01:39:05.287Z,99.90
2018-04-23T01:41:32.697Z,99.90
2018-04-23T01:43:59.182Z,99.90
2018-04-23T01:46:26.370Z,99.90
2018-04-23T01:48:52.872Z,99.90
2018-04-23T01:51:20.146Z,99.90
2018-04-23T01:53:46.600Z,99.90
2018-04-23T01:56:13.131Z,99.90
2018-04-23T01:58:39.563Z,99.90
2018-04-23T02:01:06.037Z,99.90
2018-04-23T02:03:32.476Z,99.90
2018-04-23T02:05:59.746Z,99.90
2018-04-23T02:08:26.915Z,99.90
2018-04-23T02:10:53.421Z,99.90
2018-04-23T02:13:20.552Z,99.90
2018-04-23T02:15:47.021Z,99.90
2018-04-23T02:18:13.482Z,99.90
2018-04-23T02:20:39.970Z,99.90
2018-04-23T02:23:07.203Z,99.90
2018-04-23T02:25:33.602Z,99.90
2018-04-23T02:28:00.108Z,99.90
2018-04-23T02:30:26.517Z,99.90
2018-04-23T02:32:53.737Z,99.90
2018-04-23T02:35:20.145Z,99.90
2018-04-23T02:37:46.616Z,99.90
2018-04-23T02:40:13.122Z,99.90
2018-04-23T02:42:39.568Z,99.90
2018-04-23T02:45:06.054Z,99.90
2018-04-23T02:47:33.385Z,99.90
2018-04-23T02:49:59.812Z,99.90
2018-04-23T02:52:26.353Z,99.90
2018-04-23T02:54:52.830Z,99.90
2018-04-23T02:57:19.325Z,99.90
2018-04-23T02:59:46.629Z,99.90
2018-04-23T03:02:13.046Z,99.90
2018-04-23T03:04:39.571Z,99.90
2018-04-23T03:07:05.977Z,99.90
2018-04-23T03:09:33.230Z,99.90
2018-04-23T03:11:59.697Z,99.90
2018-04-23T03:14:26.169Z,99.90
2018-04-23T03:16:52.630Z,99.90
2018-04-23T03:19:19.071Z,99.90
2018-04-23T03:21:46.223Z,99.90
2018-04-23T03:24:13.484Z,99.90
2018-04-23T03:26:40.702Z,99.90
2018-04-23T03:29:07.169Z,99.90
2018-04-23T03:31:34.376Z,99.90
2018-04-23T03:34:00.850Z,99.90
2018-04-23T03:36:28.084Z,99.90
2018-04-23T03:38:54.552Z,99.90
2018-04-23T03:41:20.965Z,99.90
2018-04-23T03:43:48.181Z,99.90
2018-04-23T03:46:14.606Z,99.90
2018-04-23T03:48:41.081Z,99.90
2018-04-23T03:51:08.318Z,99.90
2018-04-23T03:53:42.781Z,99.90
2018-04-23T03:56:09.234Z,99.90
2018-04-23T03:58:35.656Z,99.90
2018-04-23T04:01:02.108Z,99.90
2018-04-23T04:03:28.540Z,99.90
2018-04-23T04:05:55.054Z,99.90
2018-04-23T04:08:21.928Z,99.90
2018-04-23T04:10:48.381Z,99.90
2018-04-23T04:13:28.673Z,99.90
2018-04-23T04:16:07.337Z,99.90
2018-04-23T04:18:44.960Z,99.90
2018-04-23T04:21:11.558Z,99.90
2018-04-23T04:23:37.973Z,99.90
2018-04-23T04:26:04.456Z,99.90
2018-04-23T04:28:30.892Z,99.90
2018-04-23T04:30:57.348Z,99.90
2018-04-23T04:33:23.833Z,99.90
2018-04-23T04:35:50.368Z,99.90
2018-04-23T04:38:16.864Z,99.90
2018-04-23T04:40:44.022Z,99.90
2018-04-23T04:43:10.605Z,99.90
2018-04-23T04:45:37.022Z,99.90
2018-04-23T04:48:03.575Z,99.90
2018-04-23T04:50:30.033Z,99.90
2018-04-23T04:52:57.265Z,99.90
2018-04-23T04:55:23.818Z,99.90
2018-04-23T04:57:51.080Z,99.90
2018-04-23T05:00:17.562Z,99.90
2018-04-23T05:02:44.029Z,99.90
2018-04-23T05:05:11.332Z,99.90
2018-04-23T05:07:37.801Z,99.90
2018-04-23T05:10:04.282Z,99.90
2018-04-23T05:12:30.714Z,99.90
2018-04-23T05:14:57.193Z,99.90
2018-04-23T05:17:23.667Z,99.90
2018-04-23T05:19:50.221Z,99.90
2018-04-23T05:22:16.640Z,99.90
2018-04-23T05:24:43.109Z,99.90
2018-04-23T05:27:09.557Z,99.90
2018-04-23T05:29:36.499Z,99.90
2018-04-23T05:32:03.049Z,99.90
2018-04-23T05:34:29.536Z,99.90
2018-04-23T05:36:56.033Z,99.90
2018-04-23T05:39:23.510Z,99.90
2018-04-23T05:41:50.817Z,99.90
2018-04-23T05:44:17.281Z,99.90
2018-04-23T05:46:44.477Z,99.90
2018-04-23T05:49:10.926Z,99.90
2018-04-23T05:51:37.402Z,99.90
2018-04-23T05:54:04.709Z,99.90
2018-04-23T05:56:32.041Z,99.90
2018-04-23T05:58:58.570Z,99.90
2018-04-23T06:01:24.997Z,99.90
2018-04-23T06:03:51.520Z,99.90
2018-04-23T06:06:18.749Z,99.90
2018-04-23T06:08:45.283Z,99.90
2018-04-23T06:11:11.798Z,99.90
2018-04-23T06:13:38.260Z,99.90
2018-04-23T06:16:05.641Z,99.90
2018-04-23T06:18:32.069Z,99.90
2018-04-23T06:20:59.270Z,99.90
2018-04-23T06:23:25.860Z,99.90
2018-04-23T06:25:52.315Z,99.90
2018-04-23T06:28:18.953Z,99.90
2018-04-23T06:30:45.384Z,99.90
2018-04-23T06:33:11.917Z,99.90
2018-04-23T06:35:38.381Z,99.90
2018-04-23T06:38:04.840Z,99.90
2018-04-23T06:40:32.141Z,99.90
2018-04-23T06:42:58.618Z,99.90
2018-04-23T06:45:25.128Z,99.90
2018-04-23T06:50:47.857Z,99.90
2018-04-23T06:53:14.326Z,99.90
2018-04-23T06:55:41.505Z,99.90
2018-04-23T06:58:08.709Z,99.90
2018-04-23T07:00:35.554Z,99.90
2018-04-23T07:03:02.080Z,99.90
2018-04-23T07:05:28.625Z,99.90
2018-04-23T07:07:55.072Z,99.90
2018-04-23T07:10:21.584Z,99.90
2018-04-23T07:12:48.016Z,99.90
2018-04-23T07:15:14.524Z,99.90
2018-04-23T07:17:41.713Z,99.90
2018-04-23T07:20:08.197Z,99.90
2018-04-23T07:22:34.654Z,98.40
2018-04-23T07:25:01.132Z,98.30
2018-04-23T07:27:27.721Z,97.10
2018-04-23T07:29:54.221Z,95.60
2018-04-23T07:32:20.696Z,94.50
2018-04-23T07:34:48.970Z,93.50
2018-04-23T07:37:50.950Z,91.90
2018-04-23T07:40:18.413Z,91.90
2018-04-23T07:42:44.861Z,91.10
2018-04-23T07:45:11.363Z,90.50
2018-04-23T07:47:37.848Z,91.30
2018-04-23T07:50:05.089Z,92.60
2018-04-23T07:52:31.582Z,92.60
2018-04-23T07:54:58.131Z,91.30
2018-04-23T07:57:24.569Z,91.70
2018-04-23T07:59:51.049Z,91.20
2018-04-23T08:02:18.268Z,92.60
2018-04-23T08:04:44.791Z,92.60
2018-04-23T08:07:11.271Z,93.00
2018-04-23T08:09:37.735Z,95.30
2018-04-23T08:12:04.242Z,96.20
2018-04-23T08:14:31.411Z,98.80
2018-04-23T08:16:57.912Z,98.80
2018-04-23T08:19:24.361Z,99.60
2018-04-23T08:21:51.564Z,99.90
2018-04-23T08:24:18.079Z,99.90
2018-04-23T08:26:44.539Z,99.90
2018-04-23T08:29:11.016Z,99.90
2018-04-23T08:31:38.277Z,99.80
2018-04-23T08:34:05.625Z,99.50
2018-04-23T08:36:32.813Z,98.40
2018-04-23T08:38:59.267Z,98.40
2018-04-23T08:41:26.567Z,97.20
2018-04-23T08:43:53.812Z,97.20
2018-04-23T08:46:21.047Z,97.80
2018-04-23T08:48:47.517Z,97.80
2018-04-23T08:51:14.174Z,98.30
2018-04-23T08:53:49.459Z,99.70
2018-04-23T08:56:16.673Z,99.90
2018-04-23T08:58:43.166Z,99.90
2018-04-23T09:01:10.385Z,99.90
2018-04-23T09:03:36.889Z,99.90
2018-04-23T09:06:03.369Z,99.90
2018-04-23T09:08:29.880Z,99.90
2018-04-23T09:10:56.387Z,99.90
2018-04-23T09:13:22.930Z,99.90
2018-04-23T09:15:49.412Z,99.90
2018-04-23T09:18:15.941Z,99.90
2018-04-23T09:20:42.396Z,99.90
2018-04-23T09:23:09.650Z,99.90
2018-04-23T09:25:36.821Z,99.90
2018-04-23T09:28:03.311Z,99.90
2018-04-23T09:30:29.761Z,99.90
2018-04-23T09:32:56.347Z,99.90
2018-04-23T09:35:22.767Z,99.90
2018-04-23T09:37:49.259Z,99.90
2018-04-23T09:40:16.547Z,99.90
2018-04-23T09:42:43.001Z,99.90
2018-04-23T09:45:09.503Z,99.90
2018-04-23T09:47:35.938Z,99.90
2018-04-23T09:50:02.490Z,99.90
2018-04-23T09:52:29.678Z,99.90
2018-04-23T09:54:56.876Z,99.90
2018-04-23T09:57:23.305Z,99.90
2018-04-23T09:59:49.789Z,99.90
2018-04-23T10:02:20.234Z,99.90
2018-04-23T10:04:47.109Z,99.90
2018-04-23T10:07:13.565Z,99.90
2018-04-23T10:09:40.150Z,99.90
2018-04-23T10:12:07.429Z,99.90
2018-04-23T10:14:34.572Z,99.90
2018-04-23T10:17:01.762Z,99.90
2018-04-23T10:19:28.217Z,99.90
2018-04-23T10:21:54.705Z,99.90
2018-04-23T10:24:21.187Z,99.90
2018-04-23T10:26:47.653Z,99.90
2018-04-23T10:29:14.897Z,99.90
2018-04-23T10:31:42.106Z,99.90
2018-04-23T10:34:08.618Z,99.90
2018-04-23T10:36:35.083Z,99.90
2018-04-23T10:39:01.569Z,99.90
2018-04-23T10:41:28.032Z,99.90
2018-04-23T10:43:54.531Z,99.90
2018-04-23T10:46:20.945Z,99.90
2018-04-23T10:48:48.179Z,99.90
2018-04-23T10:51:14.741Z,99.90
2018-04-23T10:53:42.091Z,99.90
2018-04-23T10:56:09.323Z,99.90
2018-04-23T10:58:35.851Z,99.90
2018-04-23T11:01:02.282Z,99.90
2018-04-23T11:03:28.769Z,99.90
2018-04-23T11:05:55.230Z,99.90
2018-04-23T11:08:21.690Z,99.90
2018-04-23T11:10:49.820Z,99.90
2018-04-23T11:13:16.250Z,99.90
2018-04-23T11:15:42.757Z,99.90
2018-04-23T11:18:09.957Z,99.90
2018-04-23T11:20:36.516Z,99.90
2018-04-23T11:23:02.960Z,99.90
2018-04-23T11:25:29.398Z,99.90
2018-04-23T11:27:56.597Z,99.90
2018-04-23T11:30:23.222Z,99.90
2018-04-23T11:32:49.654Z,99.90
2018-04-23T11:35:16.123Z,99.90
2018-04-23T11:37:42.588Z,99.90
2018-04-23T11:40:09.810Z,99.90
2018-04-23T11:42:36.382Z,99.90
2018-04-23T11:45:03.625Z,99.90
2018-04-23T11:47:30.869Z,99.90
2018-04-23T11:49:57.293Z,99.90
2018-04-23T11:52:23.761Z,99.90
2018-04-23T11:54:51.017Z,99.90
2018-04-23T11:57:18.411Z,99.90
2018-04-23T11:59:44.855Z,99.90
2018-04-23T12:02:11.317Z,99.90
2018-04-23T12:04:38.534Z,99.90
2018-04-23T12:07:05.052Z,99.90
2018-04-23T12:09:31.554Z,99.90
2018-04-23T12:11:58.827Z,99.90
2018-04-23T12:14:25.257Z,99.90
2018-04-23T12:16:51.721Z,99.90
2018-04-23T12:19:18.192Z,99.90
2018-04-23T12:21:45.486Z,99.90
2018-04-23T12:24:11.946Z,99.90
2018-04-23T12:26:38.393Z,99.90
2018-04-23T12:29:04.870Z,99.90
2018-04-23T12:31:31.317Z,99.90
2018-04-23T12:33:57.825Z,99.90
2018-04-23T12:36:25.012Z,99.90
2018-04-23T12:38:51.517Z,99.90
2018-04-23T12:41:17.970Z,99.90
2018-04-23T12:43:44.582Z,99.90
2018-04-23T12:46:11.882Z,99.90
2018-04-23T12:48:38.301Z,99.90
2018-04-23T12:51:04.844Z,99.90
2018-04-23T12:53:31.280Z,99.90
2018-04-23T12:55:57.756Z,99.90
2018-04-23T12:58:25.121Z,99.90
2018-04-23T13:00:52.403Z,99.90
2018-04-23T13:03:18.836Z,99.90
2018-04-23T13:05:45.390Z,99.90
2018-04-23T13:08:11.885Z,99.90
2018-04-23T13:10:38.449Z,99.90
2018-04-23T13:13:04.929Z,99.90
2018-04-23T13:15:31.693Z,99.90
2018-04-23T13:17:58.371Z,99.90
2018-04-23T13:20:24.866Z,99.90
2018-04-23T13:22:51.470Z,99.90
2018-04-23T13:25:17.937Z,99.90
2018-04-23T13:27:45.179Z,99.90
2018-04-23T13:30:11.621Z,99.90
2018-04-23T13:32:39.202Z,99.90
2018-04-23T13:35:05.741Z,99.90
2018-04-23T13:37:32.289Z,99.90
2018-04-23T13:39:58.772Z,99.90
2018-04-23T13:42:26.101Z,99.90
2018-04-23T13:44:53.269Z,99.90
2018-04-23T13:47:27.579Z,99.90
2018-04-23T13:49:54.122Z,99.90
2018-04-23T13:52:20.764Z,99.90
2018-04-23T13:54:48.053Z,99.90
2018-04-23T13:57:14.601Z,99.90
2018-04-23T13:59:41.128Z,99.90
2018-04-23T14:02:07.562Z,99.90
2018-04-23T14:04:40.978Z,99.90
2018-04-23T14:07:07.421Z,99.90
2018-04-23T14:09:33.889Z,99.90
2018-04-23T14:12:01.240Z,99.90
2018-04-23T14:14:28.486Z,99.90
2018-04-23T14:16:55.705Z,99.90
2018-04-23T14:19:22.221Z,99.90
2018-04-23T14:21:48.767Z,99.90
2018-04-23T14:24:15.241Z,99.90
2018-04-23T14:26:41.905Z,99.90
2018-04-23T14:29:08.488Z,99.90
2018-04-23T14:31:35.676Z,99.90
2018-04-23T14:34:02.973Z,99.90
2018-04-23T14:36:29.405Z,99.90
2018-04-23T14:38:55.917Z,99.90
2018-04-23T14:41:22.870Z,99.90
2018-04-23T14:43:49.499Z,99.90
2018-04-23T14:46:17.121Z,99.90
2018-04-23T14:48:43.686Z,99.90
2018-04-23T14:51:10.885Z,99.90
2018-04-23T14:53:37.346Z,99.90
2018-04-23T14:56:04.605Z,99.90
2018-04-23T14:58:31.833Z,99.90
2018-04-23T15:00:58.356Z,99.90
2018-04-23T15:03:24.835Z,99.90
2018-04-23T15:05:52.021Z,99.90
2018-04-23T15:08:18.562Z,99.90
2018-04-23T15:10:45.073Z,99.90
2018-04-23T15:13:11.560Z,99.90
2018-04-23T15:15:38.180Z,99.90
2018-04-23T15:18:04.714Z,99.90
2018-04-23T15:20:31.241Z,99.90
2018-04-23T15:22:57.771Z,99.90
2018-04-23T15:25:24.292Z,99.90
2018-04-23T15:27:50.789Z,99.90
2018-04-23T15:30:17.991Z,99.90
2018-04-23T15:32:44.535Z,99.90
2018-04-23T15:35:11.045Z,99.90
2018-04-23T15:37:38.281Z,99.90
2018-04-23T15:40:05.566Z,99.90
2018-04-23T15:42:34.027Z,99.90
2018-04-23T15:45:00.534Z,99.90
2018-04-23T15:47:27.717Z,99.90
2018-04-23T15:49:54.227Z,99.90
2018-04-23T15:52:21.486Z,99.90
2018-04-23T15:54:48.025Z,99.90
2018-04-23T15:57:14.525Z,99.90
2018-04-23T15:59:41.030Z,99.90
2018-04-23T16:02:07.522Z,99.90
2018-04-23T16:04:34.921Z,99.90
2018-04-23T16:07:01.430Z,99.90
2018-04-23T16:09:27.948Z,99.90
2018-04-23T16:11:56.466Z,99.90
2018-04-23T16:14:23.000Z,99.90
2018-04-23T16:16:49.459Z,99.90
2018-04-23T16:19:16.075Z,99.90
2018-04-23T16:21:47.674Z,99.90
2018-04-23T16:24:15.179Z,99.90
2018-04-23T16:26:41.863Z,99.90
2018-04-23T16:29:09.221Z,99.90
2018-04-23T16:31:36.637Z,99.90
2018-04-23T16:34:03.131Z,99.90
2018-04-23T16:36:29.640Z,99.90
2018-04-23T16:38:56.182Z,99.90
2018-04-23T16:41:23.377Z,99.90
2018-04-23T16:43:49.976Z,99.90
2018-04-23T16:46:18.224Z,99.90
2018-04-23T16:48:45.502Z,99.90
2018-04-23T16:51:13.478Z,99.90
2018-04-23T16:53:40.749Z,99.90
2018-04-23T16:56:08.021Z,99.90
2018-04-23T16:58:34.486Z,99.90
2018-04-23T17:01:01.055Z,99.90
2018-04-23T17:03:27.620Z,99.90
2018-04-23T17:05:54.378Z,99.90
2018-04-23T17:08:20.953Z,99.90
2018-04-23T17:10:48.189Z,99.90
2018-04-23T17:13:14.830Z,99.90
2018-04-23T17:15:41.430Z,99.90
2018-04-23T17:18:07.949Z,99.90
2018-04-23T17:20:37.625Z,99.90
2018-04-23T17:23:04.434Z,99.90
2018-04-23T17:25:31.049Z,99.90
2018-04-23T17:27:57.673Z,99.90
2018-04-23T17:30:25.203Z,99.90
2018-04-23T17:32:52.056Z,99.90
2018-04-23T17:35:19.399Z,99.90
2018-04-23T17:37:46.665Z,99.90
2018-04-23T17:40:13.984Z,99.90
2018-04-23T17:42:40.479Z,99.90
2018-04-23T17:45:06.985Z,99.90
2018-04-23T17:47:34.345Z,99.90
2018-04-23T17:50:00.861Z,99.90
2018-04-23T17:52:27.466Z,99.90
2018-04-23T17:54:53.924Z,99.90
2018-04-23T17:57:21.200Z,99.90
2018-04-23T17:59:48.437Z,99.90
2018-04-23T18:02:15.685Z,99.90
2018-04-23T18:04:42.332Z,99.90
2018-04-23T18:07:09.580Z,99.90
2018-04-23T18:09:36.819Z,99.90
2018-04-23T18:12:03.445Z,99.90
2018-04-23T18:14:30.017Z,99.90
2018-04-23T18:16:57.322Z,99.90
2018-04-23T18:19:23.789Z,99.90
2018-04-23T18:24:48.146Z,99.90
2018-04-23T18:27:14.749Z,99.90
2018-04-23T18:29:41.266Z,99.90
2018-04-23T18:32:08.727Z,99.90
2018-04-23T18:34:36.035Z,99.90
2018-04-23T18:37:02.590Z,99.90
2018-04-23T18:39:29.076Z,99.90
2018-04-23T18:41:55.611Z,99.90
2018-04-23T18:44:22.240Z,99.90
2018-04-23T18:46:48.900Z,99.90
2018-04-23T18:49:15.432Z,99.90
2018-04-23T18:51:41.953Z,99.90
2018-04-23T18:54:08.443Z,99.90
2018-04-23T18:56:35.161Z,99.90
2018-04-23T18:59:03.083Z,99.90
2018-04-23T19:01:30.399Z,99.90
2018-04-23T19:03:57.391Z,99.90
2018-04-23T19:06:23.938Z,99.90
2018-04-23T19:08:50.548Z,99.90
2018-04-23T19:11:17.125Z,99.90
2018-04-23T19:13:43.791Z,99.90
2018-04-23T19:16:10.522Z,99.90
2018-04-23T19:18:37.109Z,99.90
2018-04-23T19:21:03.795Z,99.90
2018-04-23T19:23:30.309Z,99.90
2018-04-23T19:25:56.999Z,99.90
2018-04-23T19:28:24.491Z,99.90
2018-04-23T19:30:51.223Z,99.90
2018-04-23T19:33:17.739Z,99.90
2018-04-23T19:35:45.156Z,99.90
2018-04-23T19:38:11.816Z,99.90
2018-04-23T19:40:38.450Z,99.90
2018-04-23T19:43:05.237Z,99.90
2018-04-23T19:45:31.789Z,99.90
2018-04-23T19:47:58.368Z,99.90
2018-04-23T19:50:24.852Z,99.90
2018-04-23T19:52:51.348Z,99.90
2018-04-23T19:55:19.040Z,99.90
2018-04-23T19:57:46.703Z,99.90
2018-04-23T20:00:13.183Z,99.90
2018-04-23T20:02:39.659Z,99.90
2018-04-23T20:05:06.519Z,99.90
2018-04-23T20:07:33.150Z,99.90
2018-04-23T20:09:59.721Z,99.90
2018-04-23T20:12:26.538Z,99.90
2018-04-23T20:14:53.266Z,99.90
2018-04-23T20:17:19.817Z,99.90
2018-04-23T20:19:46.310Z,99.90
2018-04-23T20:22:13.576Z,99.90
2018-04-23T20:24:40.346Z,99.90
2018-04-23T20:27:06.939Z,99.90
2018-04-23T20:29:34.167Z,99.90
2018-04-23T20:32:01.138Z,99.90
2018-04-23T20:34:28.490Z,99.90
2018-04-23T20:36:55.814Z,99.90
2018-04-23T20:39:22.333Z,99.90
2018-04-23T20:41:49.015Z,99.90
2018-04-23T20:44:17.140Z,99.90
2018-04-23T20:46:43.762Z,99.90
2018-04-23T20:49:10.286Z,99.90
2018-04-23T20:51:36.782Z,99.90
2018-04-23T20:54:03.654Z,99.90
2018-04-23T20:56:30.196Z,99.90
2018-04-23T20:58:56.766Z,99.90
2018-04-23T21:01:23.199Z,99.90
2018-04-23T21:03:49.722Z,99.90
2018-04-23T21:06:16.714Z,99.90
2018-04-23T21:08:44.515Z,99.90
2018-04-23T21:11:11.078Z,99.90
2018-04-23T21:13:37.940Z,99.90
2018-04-23T21:16:04.772Z,99.90
2018-04-23T21:18:31.270Z,99.90
2018-04-23T21:20:58.522Z,99.90
2018-04-23T21:23:25.681Z,99.90
2018-04-23T21:25:52.386Z,99.90
2018-04-23T21:28:20.009Z,99.90
2018-04-23T21:30:46.795Z,99.90
2018-04-23T21:33:13.984Z,99.90
2018-04-23T21:35:40.581Z,99.90
2018-04-23T21:38:07.880Z,99.90
2018-04-23T21:40:34.465Z,99.90
2018-04-23T21:43:09.009Z,99.90
2018-04-23T21:45:35.521Z,99.90
2018-04-23T21:48:02.778Z,99.90
2018-04-23T21:50:30.029Z,99.90
2018-04-23T21:52:56.529Z,99.90
2018-04-23T21:55:22.979Z,99.90
2018-04-23T21:57:49.575Z,99.90
2018-04-23T22:00:16.161Z,99.90
2018-04-23T22:02:43.446Z,99.90
2018-04-23T22:05:09.857Z,99.90
2018-04-23T22:07:37.218Z,99.90
2018-04-23T22:10:03.681Z,99.90
2018-04-23T22:12:30.230Z,99.90
2018-04-23T22:14:56.698Z,99.90
2018-04-23T22:17:23.954Z,99.90
2018-04-23T22:19:52.910Z,99.90
2018-04-23T22:22:19.402Z,99.90
2018-04-23T22:24:45.918Z,99.90
2018-04-23T22:27:13.092Z,99.90
2018-04-23T22:29:39.639Z,99.90
2018-04-23T22:32:06.208Z,99.90
2018-04-23T22:34:33.379Z,99.90
2018-04-23T22:37:00.580Z,99.90
2018-04-23T22:39:27.100Z,99.90
2018-04-23T22:41:53.554Z,99.90
2018-04-23T22:44:20.343Z,99.90
2018-04-23T22:46:47.900Z,99.90
2018-04-23T22:49:14.482Z,99.90
2018-04-23T22:51:41.022Z,99.90
2018-04-23T22:54:07.525Z,99.90
2018-04-23T22:56:34.757Z,99.90
2018-04-23T22:59:01.966Z,99.90
2018-04-23T23:01:28.475Z,99.90
2018-04-23T23:03:55.007Z,99.90
2018-04-23T23:06:21.922Z,99.90
2018-04-23T23:11:44.342Z,99.90
2018-04-23T23:14:10.800Z,99.90
2018-04-23T23:16:37.453Z,99.90
2018-04-23T23:19:04.649Z,99.90
2018-04-23T23:21:31.132Z,99.90
2018-04-23T23:23:57.658Z,99.90
2018-04-23T23:26:24.107Z,99.90
2018-04-23T23:28:51.305Z,99.90
2018-04-23T23:31:17.746Z,99.90
2018-04-23T23:33:44.235Z,99.90
2018-04-23T23:36:11.429Z,99.90
2018-04-23T23:38:37.844Z,99.90
2018-04-23T23:41:04.268Z,99.90
2018-04-23T23:43:30.725Z,99.90
2018-04-23T23:45:57.162Z,99.90
2018-04-23T23:48:23.633Z,99.90
2018-04-23T23:50:50.065Z,99.90
2018-04-23T23:53:16.538Z,99.90
2018-04-23T23:55:43.037Z,99.90
2018-04-23T23:58:09.492Z,99.90
